Terminal Aerodrome Forecast
Issued by NWS Brownsville, TX

Home | Current Version | Previous Version | Text Only | Print | Product List | Glossary On
Versions: 1 2 3 4 5 6 7 8 9 10 11 12 13 14
000
FTUS44 KBRO 280500
TAFHRL
TAF
KHRL 280525Z 2806/2906 14016KT P6SM SKC
     FM281400 17013G18KT P6SM FEW030
     FM282000 14015G21KT P6SM SKC
     FM290200 14007KT P6SM SKC=

USA.gov is the U.S. government's official web portal to all federal, state and local government web resources and services.